Latest Weather Observations for Port Lincoln Airport

IDS60801

Issued at 2:35 pm CST Thursday 18 September 2014 (issued every 30 minutes, with the page automatically refreshed every 10 minutes)

About weather observations | Map of weather stations | Latest weather observations for SA | Other Formats
Station Details ID: 018192 Name: PORT LINCOLN AWS Lat: -34.60 Lon: 135.88 Height: 8.5 m
Data from the previous 72 hours. | See also: Recent months at Port Lincoln Airport
Date/Time
CST
Temp
°C
App
Temp
°C
Dew
Point
Rel
Hum
%
Delta-T
°C
Wind Press
QNH
hPa
Press
MSL
hPa
Rain
since 9 am
mm
Dir
 
Spd
km/h
Gust
km/h
Spd
kts
Gust
kts
18/02:30pm 14.6 9.5 7.6 63 3.4 SSE 24 28 13 15 1025.5 1025.5 0.0
18/02:00pm 14.4 9.5 8.6 68 2.9 SSE 24 28 13 15 1025.6 1025.6 0.0
18/01:30pm 12.8 7.7 7.5 70 2.6 SSE 24 30 13 16 1025.8 1025.8 0.0
18/01:00pm 14.2 9.7 6.3 59 3.8 ESE 19 20 10 11 1026.1 1026.1 0.0
18/12:30pm 15.2 10.7 7.0 58 4.0 E 20 26 11 14 1026.2 1026.2 0.0
18/12:00pm 14.6 9.8 7.2 61 3.6 E 22 28 12 15 1026.5 1026.5 0.0
18/11:30am 13.7 8.9 7.2 65 3.1 E 22 30 12 16 1026.6 1026.6 0.0
18/11:00am 14.0 10.0 2.6 46 5.0 SSE 13 17 7 9 1026.4 1026.4 0.0
18/10:30am 14.2 10.4 3.9 50 4.7 SSE 13 19 7 10 1026.5 1026.5 0.0
18/10:00am 14.1 10.7 4.1 51 4.6 SSE 11 15 6 8 1026.7 1026.7 0.0
18/09:30am 14.4 10.6 3.8 49 4.8 SSE 13 20 7 11 1027.0 1027.0 0.0
18/09:00am 13.8 10.1 4.4 53 4.3 SSW 13 17 7 9 1027.2 1027.2 0.0
18/08:30am 12.7 9.6 5.6 62 3.3 SW 11 15 6 8 1027.2 1027.2 0.0
18/08:00am 10.5 8.5 6.1 74 2.0 NW 6 7 3 4 1027.1 1027.1 0.0
18/07:30am 7.7 5.2 5.0 83 1.2 NW 7 9 4 5 1026.8 1026.8 0.0
18/07:00am 7.2 4.3 4.7 84 1.1 NW 9 11 5 6 1026.6 1026.6 0.0
18/06:30am 6.6 3.3 4.3 85 1.0 NW 11 13 6 7 1026.3 1026.3 0.0
18/06:00am 6.1 3.1 4.1 87 0.8 NW 9 11 5 6 1026.0 1026.0 0.0
18/05:30am 5.5 2.4 3.7 88 0.7 NW 9 9 5 5 1025.6 1025.6 0.0
18/05:00am 5.8 2.7 3.6 86 0.9 NNW 9 9 5 5 1025.4 1025.4 0.0
18/04:30am 5.9 2.9 3.9 87 0.8 NNW 9 11 5 6 1025.2 1025.2 0.0
18/04:00am 5.7 2.6 3.7 87 0.8 NW 9 11 5 6 1025.2 1025.2 0.0
18/03:30am 5.5 2.1 3.8 89 0.7 NW 11 11 6 6 1025.2 1025.2 0.0
18/03:00am 4.3 0.7 2.8 90 0.6 NW 11 11 6 6 1025.2 1025.2 0.0
18/02:30am 3.7 0.4 2.5 92 0.5 NW 9 11 5 6 1025.4 1025.4 0.0
18/02:00am 3.4 -0.3 2.2 92 0.5 NW 11 13 6 7 1025.4 1025.4 0.0
18/01:30am 3.7 -0.3 2.7 93 0.4 NW 13 15 7 8 1025.7 1025.7 0.0
18/01:00am 3.3 -0.4 2.1 92 0.5 NNW 11 13 6 7 1025.8 1025.8 0.0
18/12:30am 4.1 1.2 2.6 90 0.6 NW 7 9 4 5 1025.9 1025.9 0.0
18/12:00am 3.8 1.0 2.2 89 0.6 NW 6 9 3 5 1026.1 1026.1 0.0
 
Date/Time
CST
Temp
°C
App
Temp
°C
Dew
Point
Rel
Hum
%
Delta-T
°C
Wind Press
QNH
hPa
Press
MSL
hPa
Rain
since 9 am
mm
Dir
 
Spd
km/h
Gust
km/h
Spd
kts
Gust
kts
17/11:30pm 5.2 2.4 3.1 86 0.9 NW 7 9 4 5 1026.5 1026.5 0.0
17/11:00pm 5.0 1.8 3.0 87 0.8 WNW 9 11 5 6 1026.6 1026.6 0.0
17/10:30pm 5.1 1.9 3.3 88 0.7 W 9 11 5 6 1026.4 1026.4 0.0
17/10:00pm 5.2 1.3 3.4 88 0.7 WSW 13 15 7 8 1026.4 1026.4 0.0
17/09:30pm 6.0 2.6 3.8 86 0.9 WSW 11 13 6 7 1026.1 1026.1 0.0
17/09:00pm 6.4 3.0 3.9 84 1.1 SW 11 13 6 7 1025.9 1025.9 0.0
17/08:30pm 7.4 5.0 4.5 82 1.3 SSW 6 9 3 5 1025.7 1025.7 0.0
17/08:00pm 8.3 6.1 5.1 80 1.4 SSW 6 13 3 7 1025.5 1025.5 0.0
17/07:30pm 7.9 5.0 4.8 81 1.4 SSW 9 17 5 9 1025.1 1025.1 0.0
17/07:00pm 9.1 6.2 4.9 75 1.9 SW 9 11 5 6 1024.9 1024.9 0.0
17/06:30pm 10.8 7.0 5.8 71 2.3 SSW 15 19 8 10 1024.8 1024.8 0.0
17/06:00pm 12.1 8.0 6.2 67 2.8 S 17 26 9 14 1024.5 1024.5 0.0
17/05:30pm 13.0 8.3 6.1 63 3.2 S 20 28 11 15 1024.2 1024.2 0.0
17/05:00pm 13.5 7.5 5.4 58 3.8 S 26 32 14 17 1023.8 1023.8 0.0
17/04:30pm 14.4 9.3 6.0 57 4.0 S 22 28 12 15 1023.5 1023.5 0.0
17/04:00pm 14.9 9.5 6.2 56 4.2 S 24 30 13 16 1023.3 1023.3 0.0
17/03:30pm 14.5 9.1 6.3 58 3.9 S 24 32 13 17 1023.1 1023.1 0.0
17/03:00pm 15.9 10.4 7.4 57 4.2 S 26 33 14 18 1023.0 1023.0 0.0
17/02:30pm 15.6 10.0 7.1 57 4.2 S 26 33 14 18 1023.1 1023.1 0.0
17/02:00pm 15.5 9.9 7.0 57 4.2 S 26 33 14 18 1023.2 1023.2 0.0
17/01:30pm 14.8 9.0 6.4 57 4.0 S 26 30 14 16 1023.3 1023.3 0.0
17/01:00pm 14.9 9.6 6.7 58 4.0 S 24 32 13 17 1023.2 1023.2 0.0
17/12:30pm 15.3 10.2 7.8 61 3.7 S 24 28 13 15 1023.2 1023.2 0.0
17/12:00pm 16.5 12.3 9.7 64 3.5 SSE 22 28 12 15 1023.4 1023.4 0.0
17/11:30am 15.9 10.8 7.7 58 4.1 S 24 30 13 16 1023.5 1023.5 0.0
17/11:00am 16.5 12.2 9.2 62 3.8 S 22 26 12 14 1023.6 1023.6 0.0
17/10:30am 15.5 11.1 7.5 59 4.0 S 20 24 11 13 1023.5 1023.5 0.0
17/10:00am 14.3 10.2 8.0 66 3.1 S 19 24 10 13 1023.7 1023.7 0.0
17/09:30am 13.3 9.2 8.8 74 2.3 SSE 20 32 11 17 1023.5 1023.5 0.0
17/09:00am 14.6 11.4 9.8 73 2.5 SSW 17 22 9 12 1023.2 1023.2 1.0
17/08:30am 13.1 10.5 9.4 78 1.9 SW 13 15 7 8 1023.1 1023.1 1.0
17/08:00am 12.7 9.7 9.3 80 1.7 SW 15 22 8 12 1022.7 1022.7 1.0
17/07:30am 11.3 8.5 8.7 84 1.3 WSW 13 17 7 9 1022.3 1022.3 1.0
17/07:00am 9.2 6.2 7.8 91 0.7 WSW 13 19 7 10 1021.8 1021.8 1.0
17/06:30am 8.3 5.1 6.9 91 0.6 W 13 17 7 9 1021.5 1021.5 1.0
17/06:00am 9.7 6.4 8.1 90 0.8 WSW 15 20 8 11 1021.2 1021.2 1.0
17/05:30am 8.4 5.4 7.6 95 0.4 W 13 17 7 9 1021.0 1021.0 1.0
17/05:00am 7.5 4.6 6.4 93 0.5 W 11 13 6 7 1020.7 1020.7 1.0
17/04:30am 7.8 4.6 6.9 94 0.4 W 13 15 7 8 1020.6 1020.6 1.0
17/04:00am 8.0 4.7 6.6 91 0.6 W 13 15 7 8 1020.5 1020.5 1.0
17/03:30am 9.8 6.9 8.1 89 0.8 SW 13 19 7 10 1020.5 1020.5 1.0
17/03:00am 9.8 6.6 8.4 91 0.7 SW 15 24 8 13 1020.6 1020.6 1.0
17/02:30am 10.0 6.1 8.6 91 0.7 WSW 19 24 10 13 1020.5 1020.5 1.0
17/02:00am 9.1 6.1 7.9 92 0.6 WSW 13 19 7 10 1020.5 1020.5 0.8
17/01:30am 9.3 6.3 7.9 91 0.7 WSW 13 17 7 9 1020.7 1020.7 0.8
17/01:00am 9.9 7.4 8.3 90 0.8 SW 11 15 6 8 1020.9 1020.9 0.8
17/12:30am 9.5 6.0 7.4 87 1.0 WSW 15 19 8 10 1020.8 1020.8 0.8
17/12:00am 9.4 5.9 7.3 87 1.0 W 15 19 8 10 1021.1 1021.1 0.8
 
Date/Time
CST
Temp
°C
App
Temp
°C
Dew
Point
Rel
Hum
%
Delta-T
°C
Wind Press
QNH
hPa
Press
MSL
hPa
Rain
since 9 am
mm
Dir
 
Spd
km/h
Gust
km/h
Spd
kts
Gust
kts
16/11:30pm 9.9 5.7 7.3 84 1.2 W 19 26 10 14 1021.3 1021.3 0.8
16/11:00pm 9.1 5.4 6.2 82 1.3 W 15 17 8 9 1021.2 1021.2 0.8
16/10:30pm 9.4 5.8 6.7 83 1.3 W 15 17 8 9 1021.2 1021.2 0.8
16/10:00pm 9.1 5.8 6.4 83 1.2 W 13 15 7 8 1021.2 1021.2 0.8
16/09:30pm 9.9 6.3 6.8 81 1.4 W 15 17 8 9 1021.3 1021.3 0.8
16/09:00pm 9.8 6.5 6.5 80 1.5 WSW 13 17 7 9 1021.1 1021.1 0.8
16/08:30pm 8.6 5.3 6.2 85 1.1 W 13 15 7 8 1020.9 1020.9 0.8
16/08:00pm 8.0 4.6 5.8 86 1.0 W 13 15 7 8 1020.7 1020.7 0.8
16/07:30pm 8.3 4.9 5.9 85 1.1 W 13 15 7 8 1020.3 1020.3 0.8
16/07:00pm 11.1 7.9 7.0 76 2.0 WSW 13 20 7 11 1019.9 1019.9 0.8
16/06:30pm 12.5 9.0 7.2 70 2.6 SW 15 20 8 11 1019.5 1019.5 0.8
16/06:00pm 13.2 9.4 7.6 69 2.7 SW 17 24 9 13 1019.3 1019.3 0.8
16/05:30pm 13.6 9.4 7.4 66 3.0 SW 19 24 10 13 1018.8 1018.8 0.8
16/05:00pm 14.0 8.9 7.5 65 3.2 SW 24 32 13 17 1018.6 1018.6 0.8
16/04:30pm 14.7 10.4 8.0 64 3.3 WSW 20 32 11 17 1018.2 1018.2 0.8
16/04:00pm 15.3 10.7 8.1 62 3.6 SW 22 32 12 17 1018.2 1018.2 0.8
16/03:30pm 15.2 10.2 8.2 63 3.5 WSW 24 32 13 17 1018.0 1018.0 0.8
16/03:00pm 15.7 10.9 8.7 63 3.6 SW 24 32 13 17 1017.8 1017.8 0.8
16/02:30pm 14.8 9.6 8.7 67 3.1 WSW 26 32 14 17 1017.9 1017.9 0.8
16/02:00pm 15.7 12.0 10.0 69 3.0 WSW 20 30 11 16 1018.0 1018.0 0.8
16/01:30pm 15.6 10.9 9.3 66 3.2 WSW 24 35 13 19 1018.0 1018.0 0.8
16/01:00pm 16.6 13.0 10.0 65 3.5 SW 19 24 10 13 1018.2 1018.2 0.8
16/12:30pm 15.8 12.0 11.2 74 2.5 SW 22 30 12 16 1018.6 1018.6 0.8
16/12:04pm 14.6 11.5 12.1 85 1.4 WSW 20 32 11 17 1018.9 1018.9 0.8
16/12:00pm 13.8 10.4 11.1 84 1.4 WSW 20 32 11 17 1018.9 1018.9 0.8
16/11:44am 13.5 9.4 11.6 88 1.0 WSW 24 32 13 17 1019.2 1019.2 0.8
16/11:31am 15.2 10.9 10.6 74 2.4 W 24 32 13 17 1019.1 1019.1 0.6
16/11:30am 15.1 10.7 10.5 74 2.4 W 24 32 13 17 1019.1 1019.1 0.6
16/11:19am 13.9 8.6 11.1 83 1.5 W 30 39 16 21 1019.3 1019.3 0.6
16/11:00am 15.9 11.3 9.8 67 3.2 W 24 32 13 17 1019.3 1019.3 0.6
16/10:30am 15.9 12.2 10.0 68 3.1 WSW 20 30 11 16 1019.4 1019.4 0.6
16/10:00am 15.2 11.4 9.1 67 3.1 W 19 28 10 15 1019.6 1019.6 0.6
16/09:30am 13.5 11.5 10.1 80 1.8 WNW 11 19 6 10 1019.5 1019.5 0.6
16/09:24am 12.7 9.1 9.7 82 1.5 W 19 35 10 19 1019.5 1019.5 0.6
16/09:07am 12.7 9.1 10.6 87 1.1 W 20 32 11 17 1020.0 1020.0 0.6
16/09:00am 14.0 11.1 11.0 82 1.6 W 17 20 9 11 1019.8 1019.8 0.4
16/08:30am 13.3 10.3 10.8 85 1.3 WNW 17 20 9 11 1019.6 1019.6 0.4
16/08:00am 13.0 11.2 10.9 87 1.1 NW 11 13 6 7 1019.5 1019.5 0.4
16/07:30am 11.6 9.2 10.0 90 0.8 WNW 13 17 7 9 1019.5 1019.5 0.4
16/07:00am 10.7 7.4 9.5 92 0.6 W 17 20 9 11 1019.4 1019.4 0.4
16/06:30am 9.4 5.8 8.2 92 0.6 W 17 20 9 11 1019.2 1019.2 0.2
16/06:00am 9.4 5.4 8.2 92 0.6 W 19 22 10 12 1019.0 1019.0 0.2
16/05:30am 9.8 6.3 8.7 93 0.5 W 17 19 9 10 1018.8 1018.8 0.2
16/05:00am 10.1 7.0 8.9 92 0.6 W 15 17 8 9 1018.8 1018.8 0.2
16/04:30am 10.5 7.6 9.6 94 0.5 W 15 19 8 10 1018.6 1018.6 0.2
16/04:00am 10.0 6.9 8.9 93 0.5 W 15 19 8 10 1018.5 1018.5 0.2
16/03:30am 8.6 6.4 8.0 96 0.3 W 9 11 5 6 1018.4 1018.4 0.2
16/03:00am 7.8 4.3 7.2 96 0.3 WNW 15 17 8 9 1018.5 1018.5 0.2
16/02:30am 8.4 5.0 7.6 95 0.4 WNW 15 15 8 8 1018.5 1018.5 0.2
16/02:00am 8.5 6.3 7.9 96 0.3 W 9 13 5 7 1018.8 1018.8 0.2
16/01:30am 8.6 6.4 7.8 95 0.4 W 9 11 5 6 1018.9 1018.9 0.2
16/01:00am 8.2 5.1 7.4 95 0.4 WNW 13 15 7 8 1019.2 1019.2 0.2
16/12:30am 8.1 5.0 7.2 94 0.4 WNW 13 15 7 8 1019.4 1019.4 0.2
16/12:00am 9.2 6.3 8.3 94 0.4 W 13 15 7 8 1019.4 1019.4 0.2
 
Date/Time
CST
Temp
°C
App
Temp
°C
Dew
Point
Rel
Hum
%
Delta-T
°C
Wind Press
QNH
hPa
Press
MSL
hPa
Rain
since 9 am
mm
Dir
 
Spd
km/h
Gust
km/h
Spd
kts
Gust
kts
15/11:30pm 9.2 5.9 8.1 93 0.5 W 15 17 8 9 1019.5 1019.5 0.2
15/11:00pm 10.0 7.6 8.8 92 0.6 W 11 13 6 7 1019.5 1019.5 0.2
15/10:30pm 10.3 8.1 9.5 95 0.4 W 11 15 6 8 1019.7 1019.7 0.2
15/10:00pm 8.7 5.7 7.8 94 0.4 WNW 13 17 7 9 1019.8 1019.8 0.2
15/09:30pm 9.5 6.5 7.8 89 0.8 W 13 15 7 8 1019.8 1019.8 0.2
15/09:00pm 10.3 7.2 8.7 90 0.8 W 15 19 8 10 1019.9 1019.9 0.2
15/08:30pm 10.8 8.1 8.9 88 0.9 WSW 13 17 7 9 1019.8 1019.8 0.2
15/08:00pm 10.5 8.1 8.8 89 0.8 WSW 11 15 6 8 1019.6 1019.6 0.2
15/07:30pm 10.2 7.8 8.6 90 0.8 WSW 11 13 6 7 1019.3 1019.3 0.2
15/07:00pm 10.5 8.4 8.3 86 1.1 WSW 9 11 5 6 1019.0 1019.0 0.2
15/06:30pm 13.0 10.5 9.8 81 1.6 SSW 13 15 7 8 1018.8 1018.8 0.2
15/06:00pm 14.1 10.9 10.1 77 2.1 SSW 17 22 9 12 1018.5 1018.5 0.2
15/05:30pm 14.5 10.7 9.7 73 2.5 SSW 20 26 11 14 1018.1 1018.1 0.2
15/05:00pm 14.9 10.7 9.7 71 2.7 SSW 22 28 12 15 1017.8 1017.8 0.2
15/04:30pm 15.1 10.9 9.7 70 2.8 SSW 22 28 12 15 1017.6 1017.6 0.2
15/04:00pm 15.3 11.2 10.1 71 2.7 SSW 22 26 12 14 1017.3 1017.3 0.2
15/03:30pm 15.4 10.2 10.4 72 2.6 S 28 33 15 18 1017.2 1017.2 0.2
15/03:00pm 15.3 10.6 11.9 80 1.8 SSW 28 39 15 21 1017.3 1017.3 0.2

Other Formats:

Comma delimited format used in spreadsheet applications
http://www.bom.gov.au/fwo/IDS60801/IDS60801.95661.axf

JavaScript Object Notation format (JSON) in row-major order
http://www.bom.gov.au/fwo/IDS60801/IDS60801.95661.json